Time;durP1;ratioP1;P1;durP2;ratioP2;P2;SDS_P1;SDS_P2;PMS_P1;PMS_P2;Temp;Humidity;BMP_temperature;BMP_pressure;BME280_temperature;BME280_humidity;BME280_pressure;Samples;Min_cycle;Max_cycle;Signal;HPM_P1;HPM_P2
2022/07/30 00:01:32;;;;;;;12.00;2.03;;;;;;;19.72;100.00;98498.50;5060981;28;20045;-91
2022/07/30 00:03:58;;;;;;;12.00;2.20;;;;;;;19.52;100.00;98499.50;5061887;28;20059;-92
2022/07/30 00:06:24;;;;;;;11.63;2.08;;;;;;;19.76;100.00;98490.34;5050664;28;20025;-92
2022/07/30 00:08:49;;;;;;;7.88;1.92;;;;;;;19.43;100.00;98493.75;5049151;28;20036;-92
2022/07/30 00:11:15;;;;;;;10.35;2.00;;;;;;;19.57;100.00;98493.06;5045019;28;20035;-92
2022/07/30 00:13:41;;;;;;;7.72;1.77;;;;;;;19.69;100.00;98485.44;5045267;28;20037;-92
2022/07/30 00:16:06;;;;;;;6.93;1.88;;;;;;;19.90;100.00;98484.38;5046424;28;20033;-92
2022/07/30 00:18:32;;;;;;;9.85;1.80;;;;;;;19.12;100.00;98482.94;5045989;28;20480;-92
2022/07/30 00:20:58;;;;;;;9.50;1.80;;;;;;;19.57;100.00;98485.13;5045501;28;20539;-92
2022/07/30 00:23:23;;;;;;;6.22;1.63;;;;;;;19.25;100.00;98492.00;5046161;28;20036;-91
2022/07/30 00:25:49;;;;;;;8.40;1.67;;;;;;;19.70;100.00;98477.41;5045351;28;20020;-93
2022/07/30 00:28:15;;;;;;;6.18;1.80;;;;;;;19.87;100.00;98481.03;5045858;28;20699;-91
2022/07/30 00:30:40;;;;;;;11.88;2.05;;;;;;;19.72;100.00;98479.97;5060325;28;20050;-91
2022/07/30 00:33:06;;;;;;;9.55;2.10;;;;;;;19.88;100.00;98480.09;5045719;28;20506;-92
2022/07/30 00:35:32;;;;;;;8.20;1.70;;;;;;;20.02;100.00;98482.88;5045388;28;20499;-91
2022/07/30 00:37:57;;;;;;;7.05;1.75;;;;;;;19.95;100.00;98471.75;5045846;28;20090;-92
2022/07/30 00:40:23;;;;;;;10.40;2.17;;;;;;;19.78;100.00;98467.28;5045965;28;20492;-93
2022/07/30 00:42:48;;;;;;;12.45;2.10;;;;;;;19.33;100.00;98462.53;5045442;28;20029;-91
2022/07/30 00:45:15;;;;;;;6.80;1.65;;;;;;;19.20;100.00;98452.56;5044938;28;20032;-92
2022/07/30 00:47:41;;;;;;;7.40;1.80;;;;;;;19.50;100.00;98464.34;5047535;28;20025;-93
2022/07/30 00:50:09;;;;;;;9.32;2.15;;;;;;;19.67;100.00;98459.06;5046429;28;20029;-91
2022/07/30 00:52:38;;;;;;;8.57;2.15;;;;;;;19.34;100.00;98453.69;5045527;28;20037;-92
2022/07/30 00:55:06;;;;;;;8.38;2.00;;;;;;;19.17;100.00;98449.22;5044530;28;20082;-93
2022/07/30 00:57:32;;;;;;;7.57;1.83;;;;;;;19.45;100.00;98446.91;5047330;28;20056;-90
2022/07/30 00:59:57;;;;;;;9.70;2.00;;;;;;;19.14;100.00;98437.00;5045134;28;20048;-90
2022/07/30 01:02:23;;;;;;;7.35;1.90;;;;;;;19.28;100.00;98444.25;5045024;28;20466;-93
2022/07/30 01:04:52;;;;;;;8.35;2.15;;;;;;;19.16;100.00;98444.88;5045257;28;20037;-92
2022/07/30 01:07:17;;;;;;;7.97;2.20;;;;;;;19.67;100.00;98434.41;5045851;28;20033;-93
2022/07/30 01:09:43;;;;;;;9.05;2.10;;;;;;;19.39;100.00;98441.94;5045340;28;20044;-91
2022/07/30 01:12:11;;;;;;;8.30;1.98;;;;;;;19.24;100.00;98435.63;5045159;28;20504;-90
2022/07/30 01:14:38;;;;;;;8.73;1.95;;;;;;;18.92;100.00;98443.34;5043931;28;20060;-92
2022/07/30 01:17:04;;;;;;;7.55;2.10;;;;;;;19.12;100.00;98440.66;5044314;28;20082;-91
2022/07/30 01:19:47;;;;;;;7.45;2.00;;;;;;;18.98;100.00;98447.47;5044406;28;20484;-91
2022/07/30 01:22:29;;;;;;;8.00;2.10;;;;;;;19.03;100.00;98439.34;5046109;28;20500;-90
2022/07/30 01:24:57;;;;;;;10.70;2.47;;;;;;;18.66;100.00;98441.06;5046597;28;20032;-90
2022/07/30 01:27:25;;;;;;;8.48;2.30;;;;;;;18.56;100.00;98443.28;5048666;28;20036;-91
2022/07/30 01:29:52;;;;;;;10.25;2.65;;;;;;;18.67;100.00;98443.63;5046712;28;20062;-91
2022/07/30 01:32:22;;;;;;;7.72;2.35;;;;;;;18.48;100.00;98448.06;5041342;28;20024;-90
2022/07/30 01:34:49;;;;;;;8.10;2.83;;;;;;;18.46;100.00;98453.41;5040335;28;20061;-91
2022/07/30 01:37:16;;;;;;;9.00;2.65;;;;;;;18.29;100.00;98455.94;5042860;28;20158;-92
2022/07/30 01:39:42;;;;;;;10.13;2.80;;;;;;;18.77;100.00;98449.31;5041532;28;20657;-91
2022/07/30 01:42:12;;;;;;;7.60;2.70;;;;;;;18.51;100.00;98447.91;5044081;28;20079;-92
2022/07/30 01:44:41;;;;;;;10.38;2.97;;;;;;;18.80;100.00;98443.88;5044862;28;20470;-92
2022/07/30 01:47:08;;;;;;;9.30;2.78;;;;;;;18.49;100.00;98455.06;5046047;28;20431;-92
2022/07/30 01:49:36;;;;;;;11.35;2.55;;;;;;;19.05;100.00;98446.25;5044767;28;20040;-92
2022/07/30 01:52:02;;;;;;;7.70;2.63;;;;;;;18.60;100.00;98440.41;5045784;28;20072;-91
2022/07/30 01:54:29;;;;;;;11.65;3.13;;;;;;;18.37;100.00;98446.78;5042535;28;20049;-91
2022/07/30 01:56:58;;;;;;;10.35;2.80;;;;;;;18.96;100.00;98443.22;5046128;28;20048;-91
2022/07/30 01:59:25;;;;;;;11.90;2.95;;;;;;;18.79;100.00;98436.91;5042075;28;20025;-93
2022/07/30 02:01:51;;;;;;;12.57;3.47;;;;;;;19.33;100.00;98433.44;5041953;28;20029;-92
2022/07/30 02:04:17;;;;;;;10.02;2.90;;;;;;;18.82;100.00;98428.84;5042125;28;20058;-91
2022/07/30 02:06:56;;;;;;;12.30;3.33;;;;;;;19.04;100.00;98426.03;5047147;28;20037;-91
2022/07/30 02:09:35;;;;;;;10.18;3.40;;;;;;;18.78;100.00;98427.28;5059724;28;20052;-92
2022/07/30 02:15:10;;;;;;;12.32;3.45;;;;;;;18.66;100.00;98422.56;5050075;28;20639;-92
2022/07/30 02:17:43;;;;;;;10.15;3.63;;;;;;;19.24;100.00;98421.56;5045614;28;20028;-91
2022/07/30 02:20:11;;;;;;;8.98;3.53;;;;;;;19.23;100.00;98423.34;5044571;28;20469;-92
2022/07/30 02:22:43;;;;;;;11.32;3.50;;;;;;;19.26;100.00;98419.69;5047667;28;20094;-93
2022/07/30 02:25:16;;;;;;;11.38;3.63;;;;;;;19.32;100.00;98414.09;5046107;28;20773;-92
2022/07/30 02:27:44;;;;;;;12.60;3.67;;;;;;;19.16;100.00;98418.44;5042199;28;20117;-91
2022/07/30 02:30:10;;;;;;;11.63;3.67;;;;;;;19.00;100.00;98428.88;5044524;28;20282;-93
2022/07/30 02:32:41;;;;;;;11.57;3.45;;;;;;;19.37;100.00;98416.50;5043081;28;20025;-92
2022/07/30 02:35:13;;;;;;;11.38;4.10;;;;;;;19.13;100.00;98418.59;5045258;28;20029;-93
2022/07/30 02:37:42;;;;;;;9.75;3.47;;;;;;;18.42;100.00;98417.50;5044524;28;20039;-92
2022/07/30 02:40:09;;;;;;;12.18;4.00;;;;;;;18.77;100.00;98429.06;5044221;28;20388;-93
2022/07/30 02:42:36;;;;;;;10.45;3.70;;;;;;;18.52;100.00;98428.50;5045187;28;20080;-92
2022/07/30 02:45:02;;;;;;;12.10;4.60;;;;;;;18.60;100.00;98426.34;5044538;28;20140;-92
2022/07/30 02:47:30;;;;;;;11.70;4.25;;;;;;;18.79;100.00;98423.69;5044647;28;20086;-92
2022/07/30 02:49:57;;;;;;;11.25;4.20;;;;;;;18.90;100.00;98424.06;5046412;28;20029;-91
2022/07/30 02:52:25;;;;;;;8.18;3.83;;;;;;;18.47;100.00;98414.66;5046225;28;20033;-91
2022/07/30 02:54:55;;;;;;;11.88;4.38;;;;;;;19.21;100.00;98403.22;5046134;28;20119;-93
2022/07/30 02:57:21;;;;;;;10.80;4.13;;;;;;;18.84;100.00;98411.09;5042683;28;20477;-91
2022/07/30 02:59:49;;;;;;;9.50;4.15;;;;;;;19.47;100.00;98403.66;5044804;28;20040;-93
2022/07/30 03:02:16;;;;;;;10.85;4.13;;;;;;;18.69;100.00;98404.81;5043879;28;20088;-92
2022/07/30 03:04:42;;;;;;;9.27;3.80;;;;;;;18.59;100.00;98403.50;5044102;28;20064;-93
2022/07/30 03:07:09;;;;;;;12.48;4.30;;;;;;;18.94;100.00;98398.34;5047771;28;20056;-93
2022/07/30 03:09:37;;;;;;;10.32;4.40;;;;;;;18.51;100.00;98403.88;5041629;28;20033;-92
2022/07/30 03:12:05;;;;;;;13.70;5.03;;;;;;;18.41;100.00;98403.47;5045197;28;20029;-92
2022/07/30 03:14:31;;;;;;;13.10;4.78;;;;;;;18.31;100.00;98401.31;5042518;28;20039;-93
2022/07/30 03:16:58;;;;;;;10.52;4.97;;;;;;;18.24;100.00;98404.22;5042184;28;21229;-92
2022/07/30 03:19:29;;;;;;;14.70;5.38;;;;;;;18.36;100.00;98397.53;5044196;28;20061;-92
2022/07/30 03:21:55;;;;;;;12.10;5.38;;;;;;;19.03;100.00;98389.13;5045980;28;20021;-93
2022/07/30 03:24:23;;;;;;;11.05;5.60;;;;;;;19.47;100.00;98377.22;5043237;28;20510;-92
2022/07/30 03:26:51;;;;;;;10.75;5.30;;;;;;;18.52;100.00;98383.59;5043414;28;20024;-93
2022/07/30 03:29:19;;;;;;;13.68;5.50;;;;;;;18.91;100.00;98380.00;5044852;28;20040;-92
2022/07/30 03:32:55;;;;;;;13.57;6.28;;;;;;;19.08;100.00;98381.78;5044327;28;20091;-93
2022/07/30 03:35:23;;;;;;;12.82;6.22;;;;;;;18.63;100.00;98391.88;5044259;28;20097;-93
2022/07/30 03:37:55;;;;;;;15.57;6.97;;;;;;;18.87;100.00;98386.31;5042146;28;20099;-90
2022/07/30 03:40:22;;;;;;;14.43;6.90;;;;;;;18.85;100.00;98377.63;5045672;28;20045;-93
2022/07/30 03:42:49;;;;;;;11.63;6.57;;;;;;;18.86;100.00;98380.19;5047261;28;20143;-93
2022/07/30 03:45:15;;;;;;;15.07;7.60;;;;;;;19.10;100.00;98390.53;5048199;28;20025;-91
2022/07/30 03:47:42;;;;;;;15.15;7.20;;;;;;;18.99;100.00;98390.19;5046638;28;20028;-91
2022/07/30 03:50:09;;;;;;;14.85;6.97;;;;;;;19.47;100.00;98379.84;5048931;28;20052;-93
2022/07/30 03:52:39;;;;;;;13.90;7.35;;;;;;;19.74;100.00;98383.72;5049132;28;20024;-91
2022/07/30 03:55:06;;;;;;;13.82;7.53;;;;;;;19.43;100.00;98374.75;5044812;28;20041;-91
2022/07/30 03:57:32;;;;;;;14.55;7.80;;;;;;;19.58;100.00;98373.09;5047254;28;20511;-91
2022/07/30 03:59:58;;;;;;;16.17;7.50;;;;;;;19.36;100.00;98373.34;5047801;28;20021;-91
2022/07/30 04:02:24;;;;;;;14.23;7.78;;;;;;;19.51;100.00;98373.47;5047656;28;20472;-91
2022/07/30 04:04:50;;;;;;;16.48;7.65;;;;;;;19.76;100.00;98378.34;5048003;28;20033;-91
2022/07/30 04:07:16;;;;;;;13.57;7.72;;;;;;;19.96;100.00;98374.69;5047329;28;20104;-90
2022/07/30 04:09:41;;;;;;;15.75;7.78;;;;;;;19.54;100.00;98378.59;5047191;28;20059;-91
2022/07/30 04:12:07;;;;;;;15.70;8.70;;;;;;;20.14;100.00;98364.91;5049244;28;20739;-92
2022/07/30 04:14:41;;;;;;;21.73;8.50;;;;;;;19.49;100.00;98372.72;5047732;28;20039;-92
2022/07/30 04:17:17;;;;;;;17.27;8.98;;;;;;;19.89;100.00;98368.00;5043801;28;20047;-91
2022/07/30 04:19:49;;;;;;;15.93;8.80;;;;;;;20.27;100.00;98373.84;5046435;28;20046;-90
2022/07/30 04:22:22;;;;;;;15.35;8.25;;;;;;;20.30;100.00;98362.25;5049930;28;20047;-92
2022/07/30 04:24:48;;;;;;;14.67;8.93;;;;;;;20.25;100.00;98370.44;5046188;28;20087;-90
2022/07/30 04:27:14;;;;;;;16.52;8.40;;;;;;;20.56;100.00;98358.16;5045857;28;20029;-92
2022/07/30 04:29:40;;;;;;;19.05;8.23;;;;;;;19.65;100.00;98364.81;5043350;28;20087;-91
2022/07/30 04:32:08;;;;;;;16.85;8.25;;;;;;;19.12;100.00;98366.66;5048487;28;20033;-92
2022/07/30 04:34:34;;;;;;;12.45;7.63;;;;;;;19.10;100.00;98370.22;5046975;28;20482;-92
2022/07/30 04:37:00;;;;;;;13.82;7.35;;;;;;;18.89;100.00;98369.50;5048033;28;20477;-92
2022/07/30 04:39:25;;;;;;;13.13;7.35;;;;;;;19.38;100.00;98366.19;5046842;28;20075;-92
2022/07/30 04:41:51;;;;;;;13.27;7.43;;;;;;;18.87;100.00;98365.19;5046958;28;20431;-93
2022/07/30 04:44:18;;;;;;;14.10;6.65;;;;;;;19.00;100.00;98355.78;5048199;28;20503;-92
2022/07/30 04:46:44;;;;;;;12.95;6.78;;;;;;;18.75;100.00;98359.59;5042114;28;20024;-92
2022/07/30 04:49:11;;;;;;;13.65;5.75;;;;;;;18.62;100.00;98371.66;5046367;28;20029;-93
2022/07/30 04:51:38;;;;;;;10.48;5.30;;;;;;;18.45;100.00;98366.34;5046453;28;20500;-91
2022/07/30 04:54:06;;;;;;;10.15;4.88;;;;;;;18.39;100.00;98367.50;5046397;28;20664;-93
2022/07/30 04:56:34;;;;;;;13.27;4.90;;;;;;;18.91;100.00;98353.56;5046116;28;20033;-91
2022/07/30 04:59:01;;;;;;;10.57;4.15;;;;;;;19.07;100.00;98351.88;5047224;28;20029;-91
2022/07/30 05:01:33;;;;;;;7.85;3.67;;;;;;;19.27;100.00;98350.00;5044586;28;20162;-91
2022/07/30 05:04:00;;;;;;;8.55;3.53;;;;;;;19.09;100.00;98357.09;5044269;28;20029;-92
2022/07/30 05:06:27;;;;;;;8.63;3.45;;;;;;;19.05;100.00;98359.03;5046672;28;20475;-92
2022/07/30 05:08:52;;;;;;;9.30;3.20;;;;;;;19.02;100.00;98361.81;5044731;28;20064;-91
2022/07/30 05:11:18;;;;;;;8.63;2.83;;;;;;;19.18;100.00;98350.47;5046138;28;20127;-92
2022/07/30 05:13:44;;;;;;;9.77;2.83;;;;;;;18.96;100.00;98358.66;5047898;28;20025;-92
2022/07/30 05:16:11;;;;;;;8.70;3.05;;;;;;;18.66;100.00;98360.03;5046201;28;20064;-93
2022/07/30 05:18:37;;;;;;;7.80;2.90;;;;;;;18.93;100.00;98367.59;5045884;28;20112;-92
2022/07/30 05:21:03;;;;;;;7.40;2.97;;;;;;;19.08;100.00;98364.16;5045758;28;20028;-92
2022/07/30 05:23:29;;;;;;;8.82;3.05;;;;;;;19.03;100.00;98365.34;5041321;28;20036;-92
2022/07/30 05:25:55;;;;;;;8.30;3.35;;;;;;;19.22;100.00;98359.97;5046627;28;20583;-92
2022/07/30 05:28:21;;;;;;;8.48;3.20;;;;;;;19.41;100.00;98360.72;5049472;28;20071;-91
2022/07/30 05:30:47;;;;;;;8.82;3.20;;;;;;;19.32;100.00;98366.50;5044418;28;20045;-93
2022/07/30 05:33:12;;;;;;;10.57;2.90;;;;;;;19.05;100.00;98366.97;5045783;28;20639;-94
2022/07/30 05:35:38;;;;;;;9.00;3.00;;;;;;;19.34;100.00;98364.63;5045059;28;20145;-93
2022/07/30 05:38:04;;;;;;;7.25;2.80;;;;;;;19.13;100.00;98361.28;5045227;28;20536;-92
2022/07/30 05:40:29;;;;;;;11.20;3.20;;;;;;;19.22;100.00;98373.16;5044148;28;20124;-89
2022/07/30 05:43:24;;;;;;;7.47;2.80;;;;;;;19.46;100.00;98363.16;5045447;28;20481;-93
2022/07/30 05:45:53;;;;;;;8.63;3.00;;;;;;;19.32;100.00;98355.94;5042650;28;20045;-90
2022/07/30 05:48:18;;;;;;;7.75;2.83;;;;;;;19.00;100.00;98371.63;5045451;28;20032;-90
2022/07/30 05:50:44;;;;;;;7.10;2.90;;;;;;;19.14;100.00;98368.28;5046606;28;20035;-92
2022/07/30 05:53:09;;;;;;;8.15;3.13;;;;;;;19.16;100.00;98370.84;5047073;28;20057;-93
2022/07/30 05:55:35;;;;;;;8.98;3.03;;;;;;;19.30;100.00;98363.06;5045371;28;20067;-93
2022/07/30 05:58:00;;;;;;;8.88;3.20;;;;;;;18.62;100.00;98376.94;5047987;28;20600;-91
2022/07/30 06:00:26;;;;;;;10.00;3.50;;;;;;;18.68;100.00;98375.81;5045714;28;20037;-93
2022/07/30 06:02:51;;;;;;;8.88;3.33;;;;;;;18.59;100.00;98379.75;5044712;28;20825;-93
2022/07/30 06:05:17;;;;;;;9.02;3.47;;;;;;;18.51;100.00;98374.84;5049293;28;20418;-93
2022/07/30 06:07:42;;;;;;;9.23;3.55;;;;;;;18.45;100.00;98372.47;5041833;28;20036;-93
2022/07/30 06:10:08;;;;;;;11.82;3.45;;;;;;;18.45;100.00;98371.63;5047586;28;20029;-92
2022/07/30 06:12:34;;;;;;;8.35;3.03;;;;;;;18.57;100.00;98371.06;5045781;28;20035;-92
2022/07/30 06:15:00;;;;;;;9.00;3.45;;;;;;;18.63;100.00;98368.09;5046573;28;20072;-92
2022/07/30 06:17:25;;;;;;;9.32;3.10;;;;;;;19.14;100.00;98357.72;5043428;28;20032;-91
2022/07/30 06:19:52;;;;;;;9.73;3.47;;;;;;;19.35;100.00;98344.34;5043233;28;20059;-92
2022/07/30 06:22:17;;;;;;;8.18;3.42;;;;;;;19.49;100.00;98351.56;5047587;28;20522;-92
2022/07/30 06:24:43;;;;;;;8.32;3.58;;;;;;;19.49;100.00;98348.91;5044017;28;20029;-92
2022/07/30 06:27:09;;;;;;;12.50;3.15;;;;;;;19.90;100.00;98340.59;5045006;28;20741;-90
2022/07/30 06:29:35;;;;;;;9.55;3.53;;;;;;;19.36;100.00;98343.38;5045169;28;20037;-91
2022/07/30 06:32:01;;;;;;;9.48;3.45;;;;;;;18.89;100.00;98339.59;5045133;28;20119;-90
2022/07/30 06:34:26;;;;;;;9.73;3.22;;;;;;;18.87;100.00;98337.03;5045171;28;20116;-92
2022/07/30 06:36:52;;;;;;;9.48;3.15;;;;;;;19.02;100.00;98348.59;5044855;28;20056;-90
2022/07/30 06:39:18;;;;;;;8.02;2.95;;;;;;;18.90;100.00;98341.28;5044033;28;20063;-91
2022/07/30 06:41:44;;;;;;;7.82;2.88;;;;;;;19.42;100.00;98332.50;5044102;28;20119;-90
2022/07/30 06:44:10;;;;;;;6.47;2.70;;;;;;;19.04;100.00;98344.13;5044781;28;20033;-90
2022/07/30 06:46:36;;;;;;;8.73;2.70;;;;;;;18.92;100.00;98342.09;5045926;28;20025;-92
2022/07/30 06:49:02;;;;;;;7.55;2.85;;;;;;;18.71;100.00;98354.53;5043223;28;20079;-90
2022/07/30 06:51:28;;;;;;;8.77;3.30;;;;;;;18.49;100.00;98366.13;5043902;28;20028;-91
2022/07/30 06:53:53;;;;;;;9.48;3.33;;;;;;;18.40;100.00;98377.97;5040906;28;21218;-90
2022/07/30 06:56:19;;;;;;;9.02;3.20;;;;;;;18.88;100.00;98374.88;5042295;28;20458;-91
2022/07/30 06:58:45;;;;;;;9.27;3.33;;;;;;;18.54;100.00;98384.41;5042366;28;20024;-89
2022/07/30 07:01:14;;;;;;;7.85;2.90;;;;;;;18.94;100.00;98377.19;5042522;28;20540;-90
2022/07/30 07:03:40;;;;;;;7.55;3.22;;;;;;;18.94;100.00;98385.13;5043873;28;20033;-91
2022/07/30 07:06:08;;;;;;;7.53;3.25;;;;;;;19.06;100.00;98381.88;5042927;28;20554;-91
2022/07/30 07:08:37;;;;;;;8.15;2.97;;;;;;;19.15;100.00;98391.16;5036406;28;20060;-92
2022/07/30 07:11:35;;;;;;;8.10;2.95;;;;;;;19.46;100.00;98392.25;5040835;28;20187;-91
2022/07/30 07:14:00;;;;;;;9.00;3.50;;;;;;;19.49;100.00;98385.94;5040295;28;20018;-92
2022/07/30 07:16:26;;;;;;;8.52;3.13;;;;;;;19.92;100.00;98381.06;5043050;28;20040;-92
2022/07/30 07:18:52;;;;;;;7.57;2.92;;;;;;;19.38;100.00;98382.03;5046701;28;20064;-93
2022/07/30 07:21:18;;;;;;;8.90;3.30;;;;;;;19.43;100.00;98380.03;5047220;28;20504;-92
2022/07/30 07:23:44;;;;;;;8.77;3.40;;;;;;;19.44;100.00;98373.81;5044963;28;20606;-92
2022/07/30 07:26:11;;;;;;;9.85;3.25;;;;;;;19.51;100.00;98376.13;5048304;28;20120;-91
2022/07/30 07:28:36;;;;;;;10.10;3.17;;;;;;;20.19;100.00;98360.19;5049688;28;20029;-89
2022/07/30 07:31:02;;;;;;;7.38;2.85;;;;;;;19.97;100.00;98363.13;5043834;28;20400;-93
2022/07/30 07:33:28;;;;;;;7.85;2.90;;;;;;;19.96;100.00;98356.16;5046253;28;20036;-92
2022/07/30 07:35:54;;;;;;;8.57;2.83;;;;;;;19.61;100.00;98367.63;5050807;28;20032;-90
2022/07/30 07:38:22;;;;;;;8.32;2.83;;;;;;;19.66;100.00;98372.69;5046234;28;20503;-91
2022/07/30 07:40:48;;;;;;;6.85;2.92;;;;;;;19.87;100.00;98359.28;5048238;28;20640;-91
2022/07/30 07:43:15;;;;;;;8.65;3.00;;;;;;;20.16;100.00;98348.91;5047549;28;20064;-91
2022/07/30 07:45:42;;;;;;;7.97;2.90;;;;;;;20.09;100.00;98351.88;5049033;28;20056;-91
2022/07/30 07:48:07;;;;;;;8.00;3.03;;;;;;;20.49;100.00;98346.19;5042057;28;20021;-94
2022/07/30 07:50:33;;;;;;;7.53;3.03;;;;;;;20.73;100.00;98340.47;5046347;28;20036;-92
2022/07/30 07:52:59;;;;;;;7.80;2.80;;;;;;;20.50;100.00;98350.56;5044682;28;20060;-92
2022/07/30 07:55:24;;;;;;;8.68;2.80;;;;;;;20.86;100.00;98344.09;5045768;28;20529;-92
2022/07/30 07:57:50;;;;;;;7.50;2.60;;;;;;;20.70;100.00;98341.50;5045894;28;20025;-91
2022/07/30 08:00:19;;;;;;;7.82;2.83;;;;;;;20.62;100.00;98363.09;5046125;28;20040;-91
2022/07/30 08:02:46;;;;;;;8.02;2.92;;;;;;;20.50;100.00;98358.50;5045252;28;20033;-93
2022/07/30 08:05:11;;;;;;;7.63;2.92;;;;;;;21.19;100.00;98348.38;5044163;28;20040;-91
2022/07/30 08:07:38;;;;;;;8.90;3.13;;;;;;;21.03;100.00;98358.19;5044827;28;20061;-90
2022/07/30 08:10:05;;;;;;;7.25;2.80;;;;;;;21.19;100.00;98343.06;5044111;28;20507;-90
2022/07/30 08:12:31;;;;;;;7.55;3.17;;;;;;;20.36;100.00;98353.97;5046524;28;20032;-92
2022/07/30 08:14:56;;;;;;;9.30;2.78;;;;;;;20.86;100.00;98343.25;5047309;28;20017;-91
2022/07/30 08:17:22;;;;;;;7.20;2.90;;;;;;;21.21;100.00;98335.91;5046919;28;20037;-92
2022/07/30 08:19:47;;;;;;;7.80;2.70;;;;;;;20.63;100.00;98346.25;5042220;28;20049;-91
2022/07/30 08:22:13;;;;;;;7.18;2.83;;;;;;;20.86;100.00;98344.09;5045294;28;20028;-91
2022/07/30 08:24:39;;;;;;;7.65;2.80;;;;;;;20.66;100.00;98350.53;5044177;28;20115;-91
2022/07/30 08:27:05;;;;;;;9.30;3.00;;;;;;;20.62;100.00;98347.19;5044646;28;20555;-90
2022/07/30 08:29:30;;;;;;;7.45;2.92;;;;;;;20.48;100.00;98356.88;5044983;28;20151;-92
2022/07/30 08:31:56;;;;;;;7.30;2.80;;;;;;;20.65;100.00;98348.81;5044116;28;20515;-91
2022/07/30 08:34:22;;;;;;;8.90;3.00;;;;;;;20.61;100.00;98349.94;5041545;28;20476;-92
2022/07/30 08:36:47;;;;;;;7.28;2.90;;;;;;;21.00;100.00;98343.28;5045472;28;20025;-90
2022/07/30 08:39:13;;;;;;;7.70;2.80;;;;;;;21.02;100.00;98346.72;5043421;28;20702;-90
2022/07/30 08:41:41;;;;;;;7.95;3.03;;;;;;;20.90;100.00;98350.09;5045205;28;20838;-91
2022/07/30 08:44:09;;;;;;;9.10;2.85;;;;;;;21.76;100.00;98334.38;5043996;28;20029;-92
2022/07/30 08:46:39;;;;;;;7.75;2.83;;;;;;;20.97;100.00;98335.53;5047597;28;20166;-91
2022/07/30 08:49:05;;;;;;;7.13;2.58;;;;;;;21.16;100.00;98342.44;5042262;28;20029;-90
2022/07/30 08:51:31;;;;;;;8.38;2.35;;;;;;;21.30;100.00;98345.09;5070569;28;20171;-91
2022/07/30 08:53:57;;;;;;;7.63;2.70;;;;;;;21.96;100.00;98340.25;5043553;28;20045;-91
2022/07/30 08:56:23;;;;;;;6.45;2.53;;;;;;;21.58;100.00;98339.00;5044568;28;20032;-91
2022/07/30 08:58:48;;;;;;;7.82;2.70;;;;;;;21.12;100.00;98353.19;5044094;28;20032;-92
2022/07/30 09:01:14;;;;;;;8.00;2.47;;;;;;;21.97;100.00;98339.31;5044617;28;20868;-90
2022/07/30 09:03:40;;;;;;;7.03;2.35;;;;;;;21.90;100.00;98337.97;5045130;28;20037;-92
2022/07/30 09:06:05;;;;;;;7.30;2.30;;;;;;;21.40;100.00;98338.28;5042906;28;20033;-92
2022/07/30 09:08:31;;;;;;;6.25;2.30;;;;;;;21.64;100.00;98351.03;5042033;28;20041;-91
2022/07/30 09:10:57;;;;;;;6.40;2.20;;;;;;;22.03;100.00;98336.25;5042631;28;20033;-90
2022/07/30 09:13:28;;;;;;;6.90;2.30;;;;;;;22.17;100.00;98340.69;5045645;28;20029;-91
2022/07/30 09:15:54;;;;;;;6.63;2.55;;;;;;;22.02;100.00;98344.31;5045273;28;20029;-92
2022/07/30 09:18:38;;;;;;;6.05;2.03;;;;;;;20.91;100.00;98360.59;5045753;28;20120;-92
2022/07/30 09:21:23;;;;;;;7.05;2.58;;;;;;;21.00;100.00;98368.97;5046101;28;20527;-89
2022/07/30 09:23:59;;;;;;;7.47;2.30;;;;;;;21.19;100.00;98366.09;5045550;28;20043;-90
2022/07/30 09:26:25;;;;;;;6.13;2.22;;;;;;;21.12;100.00;98361.13;5045373;28;20028;-92
2022/07/30 09:28:52;;;;;;;6.90;2.53;;;;;;;21.85;100.00;98353.34;5044927;28;20037;-90
2022/07/30 09:31:18;;;;;;;7.03;2.60;;;;;;;21.79;100.00;98352.75;5045314;28;20036;-90
2022/07/30 09:33:45;;;;;;;7.53;2.80;;;;;;;21.91;100.00;98359.13;5042061;28;20021;-90
2022/07/30 09:36:16;;;;;;;7.00;2.65;;;;;;;21.57;100.00;98365.63;5045330;28;20033;-91
2022/07/30 09:38:48;;;;;;;6.63;2.28;;;;;;;21.87;100.00;98364.72;5043606;28;20025;-90
2022/07/30 09:41:21;;;;;;;6.55;2.60;;;;;;;22.68;100.00;98348.09;5045681;28;20048;-90
2022/07/30 09:43:56;;;;;;;6.07;2.30;;;;;;;22.70;100.00;98363.94;5044826;28;20052;-90
2022/07/30 09:46:21;;;;;;;7.70;2.72;;;;;;;22.03;100.00;98364.59;5046443;28;20032;-92
2022/07/30 09:48:48;;;;;;;6.07;1.92;;;;;;;22.41;100.00;98359.56;5046362;28;20044;-91
2022/07/30 09:51:13;;;;;;;7.50;2.20;;;;;;;22.09;100.00;98362.44;5046236;28;20028;-90
2022/07/30 09:53:59;;;;;;;6.60;2.20;;;;;;;21.74;100.00;98367.25;5045668;28;20210;-91
2022/07/30 09:56:27;;;;;;;5.45;2.00;;;;;;;21.43;100.00;98377.03;5073677;28;20048;-92
2022/07/30 09:58:53;;;;;;;6.28;2.10;;;;;;;21.45;100.00;98375.16;5046668;28;20037;-91
2022/07/30 10:01:21;;;;;;;6.68;2.40;;;;;;;22.39;100.00;98372.09;5041382;28;20039;-91
2022/07/30 10:03:47;;;;;;;6.15;2.42;;;;;;;21.29;100.00;98383.16;5046350;28;20028;-91
2022/07/30 10:06:13;;;;;;;5.65;2.05;;;;;;;21.82;100.00;98379.13;5046120;28;20041;-90
2022/07/30 10:08:43;;;;;;;6.88;2.42;;;;;;;22.79;100.00;98382.81;5043790;28;20033;-90
2022/07/30 10:11:28;;;;;;;5.72;2.20;;;;;;;22.30;100.00;98377.97;5043455;28;20032;-91
2022/07/30 10:13:55;;;;;;;5.80;2.10;;;;;;;21.71;100.00;98380.72;5043562;28;20068;-91
2022/07/30 10:16:24;;;;;;;6.25;2.40;;;;;;;21.66;100.00;98383.66;5045026;28;20033;-91
2022/07/30 10:18:50;;;;;;;6.80;2.10;;;;;;;21.97;100.00;98398.56;5044797;28;20025;-91
2022/07/30 10:21:16;;;;;;;8.02;2.58;;;;;;;22.22;100.00;98386.41;5047043;28;20027;-92
2022/07/30 10:23:42;;;;;;;6.43;2.45;;;;;;;22.53;100.00;98389.81;5044502;28;20025;-90
2022/07/30 10:26:09;;;;;;;5.60;1.90;;;;;;;21.87;100.00;98396.59;5043313;28;20029;-92
2022/07/30 10:28:35;;;;;;;6.05;1.92;;;;;;;22.03;100.00;98401.78;5044350;28;20037;-92
2022/07/30 10:31:00;;;;;;;5.57;1.90;;;;;;;22.40;100.00;98395.06;5046448;28;20045;-92
2022/07/30 10:33:28;;;;;;;6.35;2.25;;;;;;;22.15;100.00;98396.56;5042924;28;20521;-91
2022/07/30 10:35:54;;;;;;;6.57;2.22;;;;;;;22.04;100.00;98392.88;5038515;28;20025;-88
2022/07/30 10:38:26;;;;;;;5.05;1.55;;;;;;;22.10;100.00;98389.81;5040365;28;20047;-88
2022/07/30 10:41:03;;;;;;;5.55;1.50;;;;;;;21.52;100.00;98403.06;5044158;28;20052;-91
2022/07/30 10:43:43;;;;;;;5.03;1.30;;;;;;;21.62;100.00;98409.53;5045936;28;20028;-92
2022/07/30 10:46:38;;;;;;;5.05;1.50;;;;;;;21.64;100.00;98401.47;5040889;28;20778;-92
2022/07/30 10:49:11;;;;;;;6.38;1.90;;;;;;;21.79;100.00;98399.69;5041269;28;20056;-92
2022/07/30 10:51:45;;;;;;;4.90;1.42;;;;;;;22.43;100.00;98384.22;5046268;28;20736;-94
2022/07/30 10:54:32;;;;;;;5.93;1.90;;;;;;;22.53;100.00;98391.63;5046154;28;20159;-95
2022/07/30 10:57:12;;;;;;;5.57;1.95;;;;;;;21.67;100.00;98401.31;5042208;28;20090;-94
2022/07/30 10:59:59;;;;;;;6.10;2.08;;;;;;;21.27;100.00;98414.25;5046042;28;20052;-95
2022/07/30 11:02:26;;;;;;;5.70;1.75;;;;;;;20.98;100.00;98422.91;5049229;28;20447;-93
2022/07/30 11:05:16;;;;;;;6.90;2.20;;;;;;;21.56;100.00;98403.72;5044968;28;20035;-94
2022/07/30 11:07:43;;;;;;;6.22;2.05;;;;;;;21.83;100.00;98398.56;5048366;28;20036;-96
2022/07/30 11:10:38;;;;;;;5.95;2.20;;;;;;;22.15;100.00;98407.19;5047531;28;20025;-95
2022/07/30 11:13:06;;;;;;;6.40;2.60;;;;;;;22.66;100.00;98414.66;5042212;28;20037;-94
2022/07/30 11:15:54;;;;;;;6.60;2.70;;;;;;;20.92;100.00;98435.69;5040085;28;20188;-93
2022/07/30 11:18:20;;;;;;;6.28;2.50;;;;;;;21.05;100.00;98441.16;5047434;28;20052;-94
2022/07/30 11:21:14;;;;;;;9.38;2.58;;;;;;;21.50;100.00;98426.13;5045779;28;20033;-92
2022/07/30 11:23:41;;;;;;;6.18;2.47;;;;;;;21.11;100.00;98412.50;5038976;28;20032;-95
2022/07/30 11:26:07;;;;;;;7.43;2.38;;;;;;;21.69;100.00;98412.66;5042513;28;20044;-91
2022/07/30 11:28:59;;;;;;;6.53;2.53;;;;;;;22.23;100.00;98400.56;5042074;28;20790;-94
2022/07/30 11:31:30;;;;;;;7.63;2.20;;;;;;;22.29;100.00;98402.81;5040187;28;20071;-91